Time;durP1;ratioP1;P1;durP2;ratioP2;P2;SDS_P1;SDS_P2;PMS_P1;PMS_P2;Temp;Humidity;BMP_temperature;BMP_pressure;BME280_temperature;BME280_humidity;BME280_pressure;Samples;Min_cycle;Max_cycle;Signal;HPM_P1;HPM_P2
2022/04/30 00:01:08;;;;;;;7.65;5.10;;;13.80;53.90;;;10.05;71.22;95956.94;5013965;28;20075;-51
2022/04/30 00:03:34;;;;;;;7.20;5.25;;;13.90;53.90;;;10.11;71.40;95961.25;5013855;28;20533;-48
2022/04/30 00:06:03;;;;;;;7.47;5.57;;;13.90;54.10;;;10.15;72.59;95966.88;4992146;28;20110;-49
2022/04/30 00:08:29;;;;;;;7.78;5.75;;;13.90;54.50;;;10.18;73.14;95969.88;5003809;28;20037;-48
2022/04/30 00:10:57;;;;;;;10.13;6.68;;;13.90;54.60;;;10.19;73.42;95973.31;5012243;28;20480;-49
2022/04/30 00:13:23;;;;;;;7.65;6.15;;;13.90;54.80;;;10.20;73.27;95972.25;4971044;28;20027;-48
2022/04/30 00:15:56;;;;;;;8.98;6.30;;;13.90;55.00;;;10.20;72.50;95974.94;5010109;28;20125;-48
2022/04/30 00:18:21;;;;;;;9.10;6.53;;;14.00;55.20;;;10.22;73.10;95980.81;5014283;28;20027;-51
2022/04/30 00:20:47;;;;;;;7.18;6.07;;;13.90;55.00;;;10.23;73.12;95990.41;5013947;28;20503;-47
2022/04/30 00:23:20;;;;;;;6.57;5.72;;;13.90;55.20;;;10.22;73.51;95983.47;5012495;28;20026;-52
2022/04/30 00:25:52;;;;;;;7.97;5.80;;;14.00;55.40;;;10.23;73.65;95981.59;4996876;28;20033;-51
2022/04/30 00:28:20;;;;;;;7.60;6.07;;;13.90;55.50;;;10.22;73.40;95986.13;4995818;28;20141;-48
2022/04/30 00:30:49;;;;;;;7.00;5.97;;;13.90;55.70;;;10.18;73.59;95996.50;5012025;28;20026;-51
2022/04/30 00:33:18;;;;;;;7.90;5.75;;;13.90;55.80;;;10.18;73.39;95985.84;4996162;28;20026;-47
2022/04/30 00:35:44;;;;;;;9.05;5.65;;;13.80;56.10;;;10.15;73.66;95985.50;5013360;28;20036;-48
2022/04/30 00:38:10;;;;;;;7.80;5.70;;;13.80;56.10;;;10.14;73.55;95986.56;5013021;28;20109;-50
2022/04/30 00:40:36;;;;;;;7.20;5.68;;;13.80;56.40;;;10.13;73.17;95984.97;5013229;28;20116;-46
2022/04/30 00:43:05;;;;;;;7.88;5.53;;;13.70;56.40;;;10.13;73.35;95979.66;4995603;28;20080;-47
2022/04/30 00:45:31;;;;;;;7.82;5.78;;;13.70;56.70;;;10.13;74.22;95985.78;4995483;28;20033;-48
2022/04/30 00:48:00;;;;;;;9.07;6.38;;;13.70;56.60;;;10.13;74.52;95979.66;4995008;28;20036;-46
2022/04/30 00:50:36;;;;;;;9.23;6.10;;;13.70;56.70;;;10.09;74.74;95976.69;4994937;28;20038;-49
2022/04/30 00:53:03;;;;;;;9.10;6.20;;;13.70;57.00;;;10.06;74.58;95979.03;4995771;28;20025;-48
2022/04/30 00:55:42;;;;;;;10.85;6.65;;;13.60;56.70;;;10.04;74.71;95971.31;5011614;28;20038;-50
2022/04/30 00:58:14;;;;;;;9.52;7.07;;;13.70;57.00;;;9.98;76.79;95971.53;4979854;28;20044;-46
2022/04/30 01:00:44;;;;;;;9.85;7.35;;;13.60;57.00;;;9.98;77.64;95971.53;4995255;28;20386;-49
2022/04/30 01:03:25;;;;;;;9.15;7.88;;;13.60;57.00;;;9.90;78.13;95973.59;4981374;28;20088;-45
2022/04/30 01:05:59;;;;;;;10.23;8.55;;;13.60;57.50;;;9.83;78.53;95969.50;5015419;28;20026;-49
2022/04/30 01:08:29;;;;;;;11.98;8.50;;;13.60;57.40;;;9.75;78.75;95964.63;4992773;28;20038;-48
2022/04/30 01:11:03;;;;;;;10.80;8.65;;;13.50;57.70;;;9.69;79.28;95964.56;4988420;28;20026;-48
2022/04/30 01:13:34;;;;;;;12.82;9.18;;;13.40;58.00;;;9.66;80.37;95966.94;5006843;28;20042;-48
2022/04/30 01:16:04;;;;;;;13.82;9.23;;;13.40;58.00;;;9.62;80.27;95955.16;5005911;28;20144;-49
2022/04/30 01:18:37;;;;;;;14.00;9.70;;;13.40;58.20;;;9.57;80.65;95960.44;5011927;28;20029;-49
2022/04/30 01:21:16;;;;;;;12.90;9.25;;;13.30;58.30;;;9.54;80.67;95958.28;4991951;28;20029;-46
2022/04/30 01:23:43;;;;;;;13.13;9.82;;;13.40;58.60;;;9.48;80.48;95963.53;5011773;28;20148;-49
2022/04/30 01:26:17;;;;;;;15.80;9.63;;;13.30;58.50;;;9.47;81.27;95969.09;4994535;28;20032;-46
2022/04/30 01:28:44;;;;;;;12.70;9.77;;;13.30;58.80;;;9.42;81.92;95956.53;5011642;28;20022;-49
2022/04/30 01:39:43;;;;;;;11.70;9.88;;;13.20;59.30;;;9.27;82.33;95953.69;5000270;28;20092;-46
2022/04/30 01:42:12;;;;;;;14.15;10.00;;;13.10;59.10;;;9.30;82.09;95960.38;4995314;28;20437;-47
2022/04/30 01:44:41;;;;;;;13.75;10.00;;;13.10;59.30;;;9.27;82.61;95954.50;4994845;28;20030;-46
2022/04/30 01:47:07;;;;;;;14.35;10.85;;;13.10;59.50;;;9.27;82.62;95956.34;4994193;28;20037;-47
2022/04/30 01:52:07;;;;;;;13.52;10.82;;;13.10;59.80;;;9.22;83.12;95956.31;5039268;28;20045;-54
2022/04/30 01:54:35;;;;;;;13.57;11.10;;;13.10;60.10;;;9.23;83.15;95953.38;5007539;28;20026;-47
2022/04/30 01:57:01;;;;;;;16.27;12.23;;;13.10;60.00;;;9.22;83.42;95950.97;5011431;28;20026;-47
2022/04/30 01:59:32;;;;;;;17.35;12.80;;;13.10;60.10;;;9.16;84.10;95944.78;5031875;28;20025;-49
2022/04/30 02:02:06;;;;;;;15.57;11.93;;;13.10;60.80;;;9.16;84.07;95951.97;4998305;28;20071;-48
2022/04/30 02:04:33;;;;;;;16.73;11.27;;;13.00;60.90;;;9.15;83.98;95948.50;5015825;28;20460;-48
2022/04/30 02:07:01;;;;;;;15.43;11.77;;;13.00;60.70;;;9.13;84.24;95939.16;4998495;28;20033;-51
2022/04/30 02:09:33;;;;;;;14.27;11.70;;;13.00;61.10;;;9.10;84.29;95945.78;4998259;28;20030;-51
2022/04/30 02:12:00;;;;;;;15.77;11.57;;;13.00;61.60;;;9.12;83.92;95951.66;5015808;28;20034;-51
2022/04/30 02:14:30;;;;;;;13.95;11.23;;;13.00;61.30;;;9.10;84.38;95956.41;5015682;28;20029;-50
2022/04/30 02:16:58;;;;;;;13.75;11.70;;;13.00;61.60;;;9.10;84.39;95953.75;5015968;28;20037;-50
2022/04/30 02:19:28;;;;;;;14.63;11.85;;;12.90;61.40;;;9.10;84.41;95948.44;4998297;28;20041;-47
2022/04/30 02:21:58;;;;;;;17.92;12.45;;;13.00;61.80;;;9.08;84.48;95953.19;5014407;28;20440;-47
2022/04/30 02:24:36;;;;;;;12.90;11.05;;;13.00;62.00;;;9.07;84.46;95954.25;5015467;28;20396;-48
2022/04/30 02:27:02;;;;;;;14.40;10.95;;;12.90;62.10;;;9.08;84.28;95952.38;5015221;28;20058;-48
2022/04/30 02:29:31;;;;;;;13.18;11.15;;;12.90;61.90;;;9.05;83.83;95951.00;4997980;28;20076;-49
2022/04/30 02:32:00;;;;;;;15.07;10.68;;;12.90;62.10;;;9.00;83.29;95951.75;4997738;28;20030;-51
2022/04/30 02:34:35;;;;;;;13.55;10.95;;;12.90;62.10;;;9.07;84.25;95946.25;4997917;28;20467;-53
2022/04/30 02:37:04;;;;;;;16.98;12.65;;;12.90;62.40;;;9.08;84.17;95942.53;5014524;28;20057;-50
2022/04/30 02:39:31;;;;;;;21.20;13.55;;;12.90;62.40;;;9.09;84.28;95946.84;4998262;28;20038;-54
2022/04/30 02:42:01;;;;;;;19.48;12.98;;;12.90;62.30;;;9.09;84.52;95946.84;4998042;28;20065;-49
2022/04/30 02:44:26;;;;;;;16.13;13.23;;;12.90;62.50;;;9.04;84.71;95941.44;5015582;28;20377;-53
2022/04/30 02:46:55;;;;;;;15.80;12.20;;;12.90;62.50;;;9.00;84.21;95937.69;5015371;28;20052;-49
2022/04/30 02:49:22;;;;;;;17.20;12.40;;;12.90;62.80;;;9.00;84.29;95929.72;5015073;28;20077;-51
2022/04/30 02:51:49;;;;;;;17.50;12.38;;;12.90;62.90;;;8.97;84.42;95931.00;4997086;28;20047;-50
2022/04/30 02:54:21;;;;;;;18.80;12.80;;;12.80;63.00;;;8.99;84.64;95934.22;4997561;28;20040;-53
2022/04/30 02:56:49;;;;;;;15.52;12.68;;;12.90;63.40;;;8.99;84.60;95930.72;5014930;28;20481;-50
2022/04/30 03:02:05;;;;;;;15.73;12.48;;;12.80;63.50;;;9.00;84.20;95933.16;5014856;28;20121;-49
2022/04/30 03:04:31;;;;;;;15.88;13.13;;;12.80;63.30;;;9.04;84.48;95931.59;4997306;28;20459;-49
2022/04/30 03:07:11;;;;;;;19.05;13.55;;;12.80;63.30;;;9.01;84.79;95929.44;5014521;28;20036;-47
2022/04/30 03:09:39;;;;;;;14.88;12.40;;;12.80;63.60;;;9.00;85.25;95930.50;4997812;28;20033;-49
2022/04/30 03:12:08;;;;;;;16.67;13.05;;;12.80;63.50;;;9.01;84.88;95926.00;5013541;28;20076;-51
2022/04/30 03:14:41;;;;;;;18.05;13.15;;;12.80;63.60;;;8.99;84.95;95922.75;5014828;28;20496;-49
2022/04/30 03:22:46;;;;;;;19.48;13.43;;;12.80;63.70;;;8.89;85.47;95919.97;5014768;28;20405;-53
2022/04/30 03:25:12;;;;;;;17.95;13.32;;;12.80;63.80;;;8.88;85.59;95919.19;5014235;28;20033;-50
2022/04/30 03:27:38;;;;;;;19.42;14.48;;;12.70;63.80;;;8.87;85.59;95917.59;4996699;28;20420;-47
2022/04/30 03:30:12;;;;;;;19.02;14.98;;;12.70;63.80;;;8.86;85.36;95915.16;4996593;28;20021;-47
2022/04/30 03:32:37;;;;;;;19.83;14.20;;;12.70;63.80;;;8.83;85.84;95924.41;5014343;28;20029;-46
2022/04/30 03:35:07;;;;;;;19.58;14.85;;;12.70;63.90;;;8.82;85.88;95924.66;5014170;28;20030;-48
2022/04/30 03:37:33;;;;;;;20.30;15.38;;;12.70;64.50;;;8.82;85.99;95927.31;5012856;28;20473;-51
2022/04/30 03:40:05;;;;;;;16.73;12.95;;;12.70;64.00;;;8.81;85.37;95915.91;5013857;28;20032;-50
2022/04/30 03:42:34;;;;;;;20.00;13.43;;;12.70;64.40;;;8.82;85.46;95914.03;4996456;28;20036;-50
2022/04/30 03:45:07;;;;;;;17.83;13.75;;;12.70;64.20;;;8.83;85.55;95924.41;4997068;28;20116;-46
2022/04/30 03:47:33;;;;;;;15.93;13.23;;;12.70;64.50;;;8.84;85.19;95918.06;5013870;28;20033;-47
2022/04/30 03:50:13;;;;;;;16.92;13.07;;;12.70;64.50;;;8.84;85.57;95919.91;4996066;28;20034;-46
2022/04/30 03:52:42;;;;;;;18.40;12.65;;;12.70;64.70;;;8.87;85.14;95922.91;4997369;28;20372;-47
2022/04/30 03:55:10;;;;;;;15.40;12.25;;;12.80;64.60;;;8.83;85.01;95916.44;5013917;28;20061;-48
2022/04/30 03:57:36;;;;;;;18.55;13.07;;;12.80;64.70;;;8.90;85.08;95925.06;4996333;28;20029;-46
2022/04/30 04:00:06;;;;;;;15.38;12.90;;;12.80;64.60;;;8.91;85.32;95924.00;5013753;28;20032;-46
2022/04/30 04:02:39;;;;;;;16.80;13.88;;;12.80;64.70;;;8.92;85.24;95922.94;4980082;28;20041;-48
2022/04/30 04:05:08;;;;;;;17.77;13.90;;;12.80;64.80;;;8.92;85.17;95930.13;4996699;28;20089;-48
2022/04/30 04:07:34;;;;;;;16.73;13.25;;;12.80;64.70;;;8.92;85.09;95916.84;4996251;28;20031;-45
2022/04/30 04:09:59;;;;;;;16.85;12.68;;;12.80;64.70;;;8.90;85.16;95921.56;5013456;28;20036;-51
2022/04/30 04:12:28;;;;;;;19.67;14.45;;;12.80;64.80;;;8.95;84.90;95924.31;4995742;28;20476;-49
2022/04/30 04:17:41;;;;;;;16.00;13.30;;;12.80;64.80;;;8.93;85.05;95921.09;5013765;28;20040;-49
2022/04/30 04:20:11;;;;;;;13.70;11.77;;;12.80;64.60;;;8.84;84.98;95923.38;4979514;28;20473;-52
2022/04/30 04:22:40;;;;;;;16.73;12.60;;;12.80;64.90;;;8.93;85.13;95929.88;4995748;28;20037;-50
2022/04/30 04:28:04;;;;;;;16.70;13.07;;;12.80;64.90;;;8.97;85.27;95931.00;5013311;28;20037;-47
2022/04/30 04:30:31;;;;;;;18.33;13.30;;;12.90;65.10;;;9.01;85.15;95940.06;4995595;28;20022;-48
2022/04/30 04:32:58;;;;;;;17.70;13.65;;;12.90;64.90;;;9.02;85.44;95939.03;5013127;28;20108;-51
2022/04/30 04:35:25;;;;;;;15.90;12.63;;;12.90;65.00;;;8.98;85.55;95931.78;5013084;28;20026;-49
2022/04/30 04:37:52;;;;;;;19.40;14.55;;;12.90;65.00;;;9.02;85.45;95947.00;4995677;28;20049;-48
2022/04/30 04:40:36;;;;;;;18.73;14.45;;;12.90;65.00;;;9.06;85.72;95957.13;4995408;28;20030;-47
2022/04/30 04:43:01;;;;;;;21.05;13.73;;;12.90;65.50;;;9.06;85.75;95954.47;4995325;28;20034;-48
2022/04/30 04:45:28;;;;;;;18.90;14.15;;;12.90;65.20;;;9.07;85.95;95964.06;5012957;28;20369;-51
2022/04/30 04:47:55;;;;;;;20.92;14.77;;;12.90;65.40;;;9.03;86.35;95953.94;5012714;28;20480;-48
2022/04/30 04:50:24;;;;;;;20.05;14.15;;;12.90;65.40;;;9.07;86.03;95970.19;4995349;28;20038;-50
2022/04/30 04:52:50;;;;;;;20.83;16.10;;;12.90;65.50;;;9.07;86.34;95970.19;5012592;28;20029;-47
2022/04/30 04:55:21;;;;;;;20.92;16.70;;;12.90;65.50;;;9.08;86.33;95969.13;4995343;28;20034;-50
2022/04/30 04:57:47;;;;;;;23.83;17.23;;;12.90;65.60;;;9.07;86.61;95970.19;5012729;28;20047;-48
2022/04/30 05:00:16;;;;;;;22.58;17.02;;;12.90;65.60;;;9.06;86.41;95975.72;4995036;28;20487;-51
2022/04/30 05:02:41;;;;;;;20.40;15.98;;;12.90;65.70;;;9.01;86.87;95974.63;5012738;28;20496;-48
2022/04/30 05:05:08;;;;;;;24.17;16.70;;;12.90;65.60;;;9.01;87.16;95968.50;5012675;28;20108;-47
2022/04/30 05:07:34;;;;;;;22.85;16.92;;;12.90;65.70;;;9.02;87.22;95968.28;5012578;28;20049;-49
2022/04/30 05:10:00;;;;;;;26.70;17.17;;;13.00;65.80;;;9.04;87.42;95970.66;4994873;28;20025;-48
2022/04/30 05:12:26;;;;;;;26.08;17.42;;;13.00;65.90;;;9.06;87.19;95973.91;5012640;28;20068;-47
2022/04/30 05:14:55;;;;;;;25.95;17.50;;;13.00;65.80;;;9.09;87.13;95978.72;5012594;28;20026;-48
2022/04/30 05:17:23;;;;;;;24.80;17.65;;;13.00;66.00;;;9.13;87.15;95973.72;5012513;28;20041;-48
2022/04/30 05:19:49;;;;;;;26.15;18.38;;;13.10;66.10;;;9.16;87.14;95975.88;5012467;28;20029;-52
2022/04/30 05:22:15;;;;;;;27.73;17.85;;;13.20;66.10;;;9.19;87.19;95975.41;4992112;28;20516;-47
2022/04/30 05:24:41;;;;;;;23.48;17.40;;;13.20;66.10;;;9.21;87.22;95975.94;5000320;28;20034;-49
2022/04/30 05:27:08;;;;;;;26.08;17.63;;;13.20;66.10;;;9.25;87.27;95980.53;4997183;28;20559;-49
2022/04/30 05:29:35;;;;;;;21.63;16.42;;;13.30;66.20;;;9.26;87.25;95976.00;4994480;28;20030;-47
2022/04/30 05:32:04;;;;;;;26.13;17.52;;;13.30;66.20;;;9.31;87.13;95975.25;5003780;28;20026;-50
2022/04/30 05:34:30;;;;;;;26.98;16.70;;;13.40;66.30;;;9.34;87.15;95980.91;5012549;28;20483;-48
2022/04/30 05:36:56;;;;;;;23.58;16.75;;;13.40;66.20;;;9.39;86.94;95974.84;5026310;28;20038;-52
2022/04/30 05:39:22;;;;;;;23.90;15.88;;;13.40;66.10;;;9.44;86.70;95978.38;5019692;28;20022;-49
2022/04/30 05:41:48;;;;;;;22.42;15.88;;;13.50;66.20;;;9.46;86.35;95972.78;5032535;28;20037;-50
2022/04/30 05:44:13;;;;;;;20.85;15.40;;;13.60;66.20;;;9.45;86.38;95969.34;5036092;28;20036;-46
2022/04/30 05:46:39;;;;;;;18.52;15.13;;;13.60;66.10;;;9.52;86.26;95981.63;5018273;28;20033;-47
2022/04/30 05:49:05;;;;;;;19.30;15.07;;;13.60;66.00;;;9.56;86.36;95983.56;5018329;28;20098;-47
2022/04/30 05:51:33;;;;;;;19.92;14.38;;;13.60;66.10;;;9.59;86.26;95984.91;5029436;28;20057;-49
2022/04/30 05:53:59;;;;;;;19.52;14.75;;;13.60;66.10;;;9.62;86.19;95981.75;5016053;28;20392;-47
2022/04/30 05:56:27;;;;;;;19.20;14.70;;;13.70;66.10;;;9.58;85.96;95986.78;4998790;28;20026;-48
2022/04/30 05:58:52;;;;;;;20.65;14.60;;;13.70;66.00;;;9.59;85.90;95990.22;4998369;28;20527;-47
2022/04/30 06:01:25;;;;;;;18.48;14.43;;;13.70;66.00;;;9.61;85.80;95990.78;4998397;28;20061;-48
2022/04/30 06:03:51;;;;;;;19.05;15.70;;;13.70;66.10;;;9.60;85.93;95989.19;4998478;28;20052;-49
2022/04/30 06:06:20;;;;;;;20.15;14.20;;;13.70;65.80;;;9.56;85.59;95983.56;4981992;28;20037;-47
2022/04/30 06:08:48;;;;;;;17.23;13.63;;;13.70;65.80;;;9.56;85.29;95985.41;4998746;28;20029;-47
2022/04/30 06:11:13;;;;;;;17.88;14.68;;;13.70;65.80;;;9.57;85.31;95987.84;4998258;28;20420;-49
2022/04/30 06:13:39;;;;;;;20.63;15.05;;;13.70;65.70;;;9.60;85.12;95991.84;4998291;28;20031;-47
2022/04/30 06:16:05;;;;;;;17.10;13.77;;;13.70;65.70;;;9.63;84.90;95994.03;4998094;28;20041;-47
2022/04/30 06:18:43;;;;;;;18.95;14.25;;;13.70;65.70;;;9.63;85.07;95994.03;5015177;28;20025;-48
2022/04/30 06:21:09;;;;;;;16.83;14.00;;;13.70;65.80;;;9.63;85.41;95994.81;4984719;28;20028;-49
2022/04/30 06:23:35;;;;;;;17.25;14.20;;;13.70;65.70;;;9.60;85.61;95999.84;5021332;28;20385;-52
2022/04/30 06:26:03;;;;;;;17.40;14.40;;;13.70;65.70;;;9.61;85.75;95998.78;5035295;28;20475;-48
2022/04/30 06:28:29;;;;;;;18.85;14.48;;;13.80;65.80;;;9.63;85.70;95994.03;5035078;28;20033;-52
2022/04/30 06:30:59;;;;;;;21.17;14.60;;;13.80;65.60;;;9.64;85.69;95993.75;5017618;28;20234;-52
2022/04/30 06:33:28;;;;;;;20.27;15.13;;;13.80;65.60;;;9.68;85.43;95996.72;5035339;28;20025;-50
2022/04/30 06:35:54;;;;;;;17.77;13.65;;;13.90;65.60;;;9.70;84.96;95995.44;5002984;28;20424;-56
2022/04/30 06:38:23;;;;;;;19.38;14.68;;;13.90;65.50;;;9.71;85.27;95986.41;4997047;28;20087;-51
2022/04/30 06:40:49;;;;;;;18.70;13.93;;;14.00;65.50;;;9.80;85.29;95992.06;5027540;28;20408;-51
2022/04/30 06:43:15;;;;;;;18.40;14.13;;;14.10;65.40;;;9.88;85.36;95988.19;5030015;28;20029;-52
2022/04/30 06:45:40;;;;;;;17.27;13.88;;;14.20;65.30;;;9.89;85.38;95985.25;4996860;28;20580;-49
2022/04/30 06:48:07;;;;;;;18.45;13.07;;;14.40;65.20;;;10.03;84.85;96001.66;5013257;28;20454;-50
2022/04/30 06:50:33;;;;;;;16.27;12.63;;;14.50;65.10;;;10.17;85.02;95991.41;5033589;28;20057;-52
2022/04/30 06:58:42;;;;;;;14.70;10.88;;;15.10;64.50;;;10.69;84.20;96006.00;5015200;28;20056;-49
2022/04/30 07:03:49;;;;;;;11.85;10.07;;;15.70;64.10;;;11.00;81.55;96007.84;4999194;28;20549;-54
2022/04/30 07:06:16;;;;;;;12.15;10.20;;;15.90;63.50;;;11.19;81.95;96010.88;4997218;28;20049;-48
2022/04/30 07:08:41;;;;;;;10.38;9.20;;;16.10;63.00;;;11.35;80.98;96009.91;4981082;28;20024;-48
2022/04/30 07:11:10;;;;;;;10.77;9.43;;;16.30;62.80;;;11.52;79.91;96008.91;4997060;28;20029;-48
2022/04/30 07:13:37;;;;;;;9.70;8.10;;;16.50;62.40;;;11.62;77.48;96010.81;5009855;28;20049;-50
2022/04/30 07:16:04;;;;;;;11.40;8.40;;;16.60;61.80;;;11.77;76.80;96014.38;5019417;28;20025;-50
2022/04/30 07:18:30;;;;;;;10.80;9.15;;;16.80;61.20;;;11.90;78.62;96014.97;5031324;28;20068;-51
2022/04/30 07:20:56;;;;;;;9.52;8.52;;;16.90;61.00;;;12.04;76.81;96005.41;4989103;28;20066;-50
2022/04/30 07:23:22;;;;;;;10.15;8.23;;;17.00;60.70;;;12.13;74.29;96003.84;5006503;28;20099;-48
2022/04/30 07:25:51;;;;;;;9.52;8.20;;;17.20;60.20;;;12.27;74.47;96009.47;5014101;28;20444;-48
2022/04/30 07:28:19;;;;;;;8.57;7.03;;;17.40;59.70;;;12.42;73.66;96014.03;5014215;28;20113;-48
2022/04/30 07:30:45;;;;;;;10.13;8.00;;;17.60;59.40;;;12.65;74.27;96012.72;5013020;28;20042;-47
2022/04/30 07:33:11;;;;;;;10.18;8.32;;;17.80;59.10;;;12.85;74.34;96014.56;5014201;28;20030;-52
2022/04/30 07:35:55;;;;;;;9.32;7.38;;;18.00;59.00;;;13.00;72.06;96017.25;5014282;28;20480;-47
2022/04/30 07:38:21;;;;;;;8.13;7.32;;;18.30;58.40;;;13.20;72.73;96024.44;4996875;28;20030;-49
2022/04/30 07:40:54;;;;;;;10.00;7.68;;;18.50;58.10;;;13.40;70.71;96015.59;5012785;28;20036;-47
2022/04/30 07:43:28;;;;;;;8.30;6.85;;;19.00;57.40;;;13.57;68.58;96017.97;4980339;28;20523;-47
2022/04/30 07:46:00;;;;;;;7.72;6.22;;;19.20;56.80;;;13.85;69.07;96024.53;5014096;28;20057;-49
2022/04/30 07:48:26;;;;;;;7.53;5.93;;;19.50;56.10;;;14.09;67.13;96014.78;5013778;28;20037;-52
2022/04/30 07:50:57;;;;;;;8.32;6.35;;;19.80;55.50;;;14.20;65.25;96017.44;5013657;28;20515;-51
2022/04/30 07:53:31;;;;;;;5.70;5.10;;;20.30;54.60;;;14.56;64.06;96012.66;4976880;28;20386;-50
2022/04/30 07:55:57;;;;;;;7.63;6.30;;;20.70;53.50;;;14.81;63.31;96004.44;5008003;28;20025;-51
2022/04/30 07:58:28;;;;;;;7.85;6.65;;;21.10;52.80;;;15.28;66.84;96010.19;5013279;28;20080;-49
2022/04/30 08:00:57;;;;;;;6.40;5.80;;;21.50;52.80;;;15.65;62.58;96008.72;5013645;28;20030;-50
2022/04/30 08:03:23;;;;;;;8.23;6.28;;;21.90;52.10;;;15.86;60.58;96012.81;4996241;28;20056;-47
2022/04/30 08:05:51;;;;;;;7.53;5.50;;;22.20;51.20;;;15.92;59.62;96019.72;5013562;28;20524;-52
2022/04/30 08:08:20;;;;;;;8.20;6.32;;;22.30;50.30;;;15.95;59.70;96005.72;5013554;28;20058;-50
2022/04/30 08:10:48;;;;;;;7.97;6.82;;;22.40;49.80;;;16.02;58.66;96008.03;5013295;28;20033;-49
2022/04/30 08:13:14;;;;;;;7.55;6.55;;;22.30;49.20;;;16.03;58.55;96008.84;5013576;28;20101;-50
2022/04/30 08:15:43;;;;;;;9.85;6.38;;;22.30;49.00;;;16.08;59.23;96014.94;5013419;28;20065;-49
2022/04/30 08:18:10;;;;;;;6.82;6.00;;;22.30;48.90;;;16.12;58.08;96017.84;5013487;28;20033;-49
2022/04/30 08:20:37;;;;;;;6.65;5.95;;;22.30;48.40;;;16.08;57.33;96020.31;4995825;28;20038;-49
2022/04/30 08:23:06;;;;;;;7.82;6.55;;;22.40;47.70;;;16.30;58.24;96006.31;4995899;28;20034;-49
2022/04/30 08:25:34;;;;;;;6.35;5.75;;;22.80;47.30;;;16.38;55.19;96015.59;4979856;28;20030;-47
2022/04/30 08:28:06;;;;;;;6.15;5.55;;;22.90;46.40;;;16.59;55.97;96013.44;5013149;28;20026;-47
2022/04/30 08:30:41;;;;;;;7.25;6.32;;;23.00;46.20;;;16.82;55.89;96011.75;5013181;28;20429;-48
2022/04/30 08:33:07;;;;;;;7.25;5.80;;;23.20;46.00;;;16.92;53.19;96025.03;4995653;28;20109;-47
2022/04/30 08:35:33;;;;;;;9.50;6.05;;;23.40;45.30;;;16.93;53.57;96018.56;4995468;28;20441;-51
2022/04/30 08:38:04;;;;;;;9.65;6.88;;;23.40;44.90;;;16.84;56.98;96013.06;5013035;28;20373;-50
2022/04/30 08:40:47;;;;;;;7.22;6.32;;;23.40;44.80;;;17.00;52.38;96005.53;5012828;28;20113;-46
2022/04/30 08:43:20;;;;;;;;;;;23.50;44.40;;;16.81;52.16;96008.25;4998415;28;20543;-48
2022/04/30 08:45:52;;;;;;;8.32;6.85;;;23.70;44.30;;;17.12;52.46;96010.47;5011830;28;19921;-49
2022/04/30 08:48:25;;;;;;;6.82;6.13;;;24.10;43.50;;;17.50;52.33;96010.31;4979187;28;20405;-46
2022/04/30 08:50:54;;;;;;;7.60;6.78;;;24.50;42.80;;;17.78;52.01;96013.84;4975760;28;20394;-48
2022/04/30 08:53:25;;;;;;;7.07;6.38;;;24.90;42.30;;;18.23;51.48;96012.09;4975769;28;20019;-49
2022/04/30 08:55:51;;;;;;;8.27;6.45;;;25.30;41.70;;;18.65;51.59;96020.88;4993193;28;20029;-47
2022/04/30 08:58:17;;;;;;;8.15;6.38;;;25.70;41.10;;;18.80;50.74;96008.16;4993040;28;20030;-50
2022/04/30 09:00:48;;;;;;;7.20;6.45;;;26.10;40.70;;;19.09;50.71;96005.84;4953758;28;20532;-49
2022/04/30 09:03:20;;;;;;;7.47;6.57;;;26.60;40.10;;;18.98;48.33;96003.69;4980619;28;20440;-49
2022/04/30 09:05:50;;;;;;;8.05;7.05;;;27.10;38.60;;;19.14;47.70;96002.19;4991903;28;20425;-51
2022/04/30 09:08:21;;;;;;;7.50;6.80;;;27.40;37.90;;;19.40;48.05;96005.84;4992937;28;20396;-47
2022/04/30 09:10:48;;;;;;;8.38;7.53;;;27.70;36.90;;;19.84;46.07;96008.75;4992061;28;20026;-51
2022/04/30 09:13:18;;;;;;;8.20;7.50;;;28.10;36.40;;;19.90;43.99;96003.97;4990926;28;20034;-47
2022/04/30 09:15:46;;;;;;;8.70;7.80;;;28.60;34.90;;;20.11;45.92;95999.59;5006411;28;20369;-49
2022/04/30 09:18:16;;;;;;;10.63;8.40;;;28.80;34.00;;;20.48;44.12;95998.19;4992428;28;20484;-49
2022/04/30 09:20:48;;;;;;;9.30;7.93;;;29.20;33.80;;;20.07;43.52;96002.13;5010935;28;20041;-50
2022/04/30 09:23:28;;;;;;;;;;;29.10;32.90;;;20.13;43.29;95991.16;5002976;28;20036;-47
2022/04/30 09:25:56;;;;;;;8.10;7.00;;;28.70;34.00;;;20.03;47.73;95995.75;4994407;28;20454;-54
2022/04/30 09:28:31;;;;;;;8.10;7.13;;;28.30;33.90;;;19.95;43.49;95990.34;4991923;28;20031;-49
2022/04/30 09:31:21;;;;;;;9.48;7.38;;;27.80;33.60;;;19.73;45.74;95985.81;4982098;28;20027;-53
2022/04/30 09:37:41;;;;;;;7.72;6.97;;;27.30;33.80;;;19.53;44.61;95987.16;5003923;28;20033;-51
2022/04/30 09:39:41;;;;;;;8.73;6.93;;;26.40;34.70;;;19.15;47.76;95984.91;5011234;28;20052;-50
2022/04/30 09:42:07;;;;;;;6.93;6.22;;;26.10;35.50;;;18.98;46.75;95987.50;5011827;28;20032;-48
2022/04/30 09:44:37;;;;;;;9.55;7.55;;;25.80;35.50;;;18.94;47.53;95988.09;5012017;28;20113;-50
2022/04/30 09:47:06;;;;;;;10.20;7.53;;;25.50;35.80;;;18.72;48.59;95985.38;5010833;28;20436;-49
2022/04/30 09:55:23;;;;;;;8.15;7.03;;;24.90;36.90;;;18.76;48.99;95977.50;4991916;28;20045;-54
2022/04/30 09:57:55;;;;;;;8.85;6.80;;;25.00;37.30;;;19.34;47.44;95966.56;4991271;28;20389;-51
2022/04/30 10:00:27;;;;;;;9.98;8.30;;;25.70;36.90;;;19.86;46.45;95960.56;4991173;28;20370;-49
2022/04/30 10:03:01;;;;;;;8.38;7.57;;;26.40;36.40;;;20.29;44.88;95960.63;4975117;28;20026;-50
2022/04/30 10:05:30;;;;;;;9.40;8.27;;;27.20;35.60;;;20.50;44.04;95960.81;4990928;28;20030;-49
2022/04/30 10:07:56;;;;;;;8.73;7.82;;;27.90;34.70;;;20.60;45.31;95956.22;4989198;28;20117;-49
2022/04/30 10:10:33;;;;;;;9.15;8.25;;;28.20;34.10;;;21.10;43.54;95963.78;4991023;28;20030;-54
2022/04/30 10:13:50;;;;;;;9.00;8.07;;;28.80;33.70;;;21.70;42.94;95966.31;4990090;28;20049;-49
2022/04/30 10:16:29;;;;;;;9.50;8.60;;;29.60;32.90;;;21.70;40.59;95960.09;4946253;28;20397;-48
2022/04/30 10:19:16;;;;;;;10.07;9.05;;;30.30;31.30;;;22.05;40.43;95957.19;4973969;28;20533;-52
2022/04/30 10:21:42;;;;;;;10.40;8.75;;;30.60;30.50;;;22.57;41.35;95954.91;4992759;28;20048;-47
2022/04/30 10:24:14;;;;;;;10.30;9.18;;;31.00;30.60;;;23.25;37.24;95945.66;4993434;28;20035;-51
2022/04/30 10:26:58;;;;;;;11.13;9.40;;;31.40;30.00;;;23.32;37.70;95941.25;4993542;28;20026;-50
2022/04/30 10:29:24;;;;;;;10.23;9.23;;;31.60;29.50;;;23.59;38.15;95944.44;4993618;28;20044;-49
2022/04/30 10:31:50;;;;;;;10.52;9.43;;;32.10;29.50;;;23.91;36.99;95940.06;4994543;28;20536;-50
2022/04/30 10:34:29;;;;;;;9.98;9.07;;;32.70;29.00;;;23.89;35.69;95936.88;4994739;28;20613;-52
2022/04/30 10:36:56;;;;;;;9.90;9.00;;;33.10;28.10;;;23.82;36.73;95933.13;4977036;28;20026;-52
2022/04/30 10:39:22;;;;;;;10.77;9.35;;;32.80;28.10;;;23.70;36.12;95934.75;4906626;28;20042;-53
2022/04/30 10:41:54;;;;;;;9.98;9.00;;;32.60;27.90;;;22.89;38.18;95933.53;4994636;28;20034;-48
2022/04/30 10:44:35;;;;;;;10.43;8.60;;;32.10;27.90;;;22.84;37.89;95922.88;4994260;28;20030;-54
2022/04/30 10:47:09;;;;;;;13.23;9.00;;;31.60;28.20;;;22.65;37.52;95923.38;4994376;28;20066;-48
2022/04/30 10:49:35;;;;;;;9.95;9.05;;;31.00;28.40;;;22.50;36.86;95924.00;4992434;28;20042;-48
2022/04/30 10:52:02;;;;;;;10.52;8.85;;;30.40;28.30;;;21.41;37.46;95920.22;4991686;28;20472;-51
2022/04/30 10:54:30;;;;;;;9.45;8.50;;;29.80;28.20;;;20.86;39.32;95912.88;4993337;28;20109;-50
2022/04/30 10:57:04;;;;;;;10.32;8.93;;;29.20;28.40;;;20.80;39.70;95914.94;4994321;28;20033;-49
2022/04/30 10:59:38;;;;;;;10.32;9.10;;;28.70;28.80;;;20.67;39.23;95914.00;4976451;28;20536;-50
2022/04/30 11:02:07;;;;;;;10.95;8.93;;;28.20;28.90;;;20.27;40.78;95903.34;4976845;28;20026;-50
2022/04/30 11:04:34;;;;;;;10.85;9.15;;;27.80;29.20;;;20.01;42.66;95895.22;5008627;28;20042;-52
2022/04/30 11:07:07;;;;;;;10.43;9.32;;;27.50;29.70;;;19.76;43.47;95904.13;4992845;28;20041;-52